sensor_id;sensor_type;location;lat;lon;timestamp;P1;durP1;ratioP1;P2;durP2;ratioP2
75814;SDS011;70031;45.570;14.228;2023-08-07T00:02:00;3.28;;;1.45;;
75814;SDS011;70031;45.570;14.228;2023-08-07T00:04:03;3.45;;;1.70;;
75814;SDS011;70031;45.570;14.228;2023-08-07T00:06:04;2.97;;;1.50;;
75814;SDS011;70031;45.570;14.228;2023-08-07T00:08:05;2.33;;;1.38;;
75814;SDS011;70031;45.570;14.228;2023-08-07T00:10:08;3.10;;;1.85;;
75814;SDS011;70031;45.570;14.228;2023-08-07T00:12:21;2.58;;;1.40;;
75814;SDS011;70031;45.570;14.228;2023-08-07T00:14:21;1.10;;;0.93;;
75814;SDS011;70031;45.570;14.228;2023-08-07T00:16:21;7.85;;;1.27;;
75814;SDS011;70031;45.570;14.228;2023-08-07T00:18:22;3.35;;;1.00;;
75814;SDS011;70031;45.570;14.228;2023-08-07T00:20:28;1.63;;;0.80;;
75814;SDS011;70031;45.570;14.228;2023-08-07T00:22:29;3.72;;;0.90;;
75814;SDS011;70031;45.570;14.228;2023-08-07T00:24:30;1.08;;;0.77;;
75814;SDS011;70031;45.570;14.228;2023-08-07T00:26:30;2.47;;;1.00;;
75814;SDS011;70031;45.570;14.228;2023-08-07T00:28:35;1.23;;;0.77;;
75814;SDS011;70031;45.570;14.228;2023-08-07T00:30:37;1.60;;;0.77;;
75814;SDS011;70031;45.570;14.228;2023-08-07T00:32:51;2.10;;;1.10;;
75814;SDS011;70031;45.570;14.228;2023-08-07T00:34:52;2.03;;;1.10;;
75814;SDS011;70031;45.570;14.228;2023-08-07T00:37:00;2.63;;;1.40;;
75814;SDS011;70031;45.570;14.228;2023-08-07T00:39:03;1.55;;;1.05;;
75814;SDS011;70031;45.570;14.228;2023-08-07T00:41:03;2.50;;;1.67;;
75814;SDS011;70031;45.570;14.228;2023-08-07T00:43:10;2.05;;;1.10;;
75814;SDS011;70031;45.570;14.228;2023-08-07T00:47:11;2.75;;;1.38;;
75814;SDS011;70031;45.570;14.228;2023-08-07T00:49:14;1.73;;;1.02;;
75814;SDS011;70031;45.570;14.228;2023-08-07T00:51:15;1.73;;;0.90;;
75814;SDS011;70031;45.570;14.228;2023-08-07T00:53:16;1.75;;;1.17;;
75814;SDS011;70031;45.570;14.228;2023-08-07T00:55:21;2.53;;;1.13;;
75814;SDS011;70031;45.570;14.228;2023-08-07T00:57:24;2.10;;;1.10;;
75814;SDS011;70031;45.570;14.228;2023-08-07T00:59:28;5.35;;;1.17;;
75814;SDS011;70031;45.570;14.228;2023-08-07T01:01:31;1.13;;;0.88;;
75814;SDS011;70031;45.570;14.228;2023-08-07T01:03:34;6.68;;;1.00;;
75814;SDS011;70031;45.570;14.228;2023-08-07T01:05:35;2.05;;;1.08;;
75814;SDS011;70031;45.570;14.228;2023-08-07T01:07:35;1.45;;;0.93;;
75814;SDS011;70031;45.570;14.228;2023-08-07T01:09:36;2.03;;;1.00;;
75814;SDS011;70031;45.570;14.228;2023-08-07T01:11:42;1.58;;;0.98;;
75814;SDS011;70031;45.570;14.228;2023-08-07T01:16:13;2.10;;;0.70;;
75814;SDS011;70031;45.570;14.228;2023-08-07T01:18:20;0.90;;;0.70;;
75814;SDS011;70031;45.570;14.228;2023-08-07T01:20:24;1.47;;;0.77;;
75814;SDS011;70031;45.570;14.228;2023-08-07T01:22:30;1.60;;;0.90;;
75814;SDS011;70031;45.570;14.228;2023-08-07T01:24:34;2.03;;;1.05;;
75814;SDS011;70031;45.570;14.228;2023-08-07T01:26:37;2.30;;;0.90;;
75814;SDS011;70031;45.570;14.228;2023-08-07T01:28:43;2.22;;;1.02;;
75814;SDS011;70031;45.570;14.228;2023-08-07T01:31:07;1.38;;;0.88;;
75814;SDS011;70031;45.570;14.228;2023-08-07T01:33:17;1.88;;;0.88;;
75814;SDS011;70031;45.570;14.228;2023-08-07T01:35:35;1.70;;;0.80;;
75814;SDS011;70031;45.570;14.228;2023-08-07T01:37:49;2.80;;;1.00;;
75814;SDS011;70031;45.570;14.228;2023-08-07T01:39:50;2.22;;;0.73;;
75814;SDS011;70031;45.570;14.228;2023-08-07T01:41:53;2.13;;;1.10;;
75814;SDS011;70031;45.570;14.228;2023-08-07T01:44:00;1.50;;;0.90;;
75814;SDS011;70031;45.570;14.228;2023-08-07T01:46:03;1.52;;;0.90;;
75814;SDS011;70031;45.570;14.228;2023-08-07T01:48:06;2.03;;;0.98;;
75814;SDS011;70031;45.570;14.228;2023-08-07T01:50:07;1.50;;;0.82;;
75814;SDS011;70031;45.570;14.228;2023-08-07T01:52:17;1.15;;;0.70;;
75814;SDS011;70031;45.570;14.228;2023-08-07T01:54:17;1.02;;;0.80;;
75814;SDS011;70031;45.570;14.228;2023-08-07T01:56:20;1.15;;;0.70;;
75814;SDS011;70031;45.570;14.228;2023-08-07T01:58:24;0.63;;;0.60;;
75814;SDS011;70031;45.570;14.228;2023-08-07T02:00:26;2.08;;;1.00;;
75814;SDS011;70031;45.570;14.228;2023-08-07T02:02:26;1.10;;;0.70;;
75814;SDS011;70031;45.570;14.228;2023-08-07T02:04:27;1.15;;;0.70;;
75814;SDS011;70031;45.570;14.228;2023-08-07T02:06:27;2.92;;;0.98;;
75814;SDS011;70031;45.570;14.228;2023-08-07T02:08:27;0.75;;;0.70;;
75814;SDS011;70031;45.570;14.228;2023-08-07T02:10:28;1.02;;;0.90;;
75814;SDS011;70031;45.570;14.228;2023-08-07T02:12:28;1.42;;;0.90;;
75814;SDS011;70031;45.570;14.228;2023-08-07T02:14:32;1.67;;;0.98;;
75814;SDS011;70031;45.570;14.228;2023-08-07T02:16:32;1.33;;;0.90;;
75814;SDS011;70031;45.570;14.228;2023-08-07T02:18:32;1.73;;;0.90;;
75814;SDS011;70031;45.570;14.228;2023-08-07T02:20:33;1.17;;;0.70;;
75814;SDS011;70031;45.570;14.228;2023-08-07T02:22:33;1.02;;;0.82;;
75814;SDS011;70031;45.570;14.228;2023-08-07T02:24:34;1.75;;;0.80;;
75814;SDS011;70031;45.570;14.228;2023-08-07T02:26:34;1.35;;;0.80;;
75814;SDS011;70031;45.570;14.228;2023-08-07T02:28:34;1.85;;;1.00;;
75814;SDS011;70031;45.570;14.228;2023-08-07T02:30:34;1.38;;;0.75;;
75814;SDS011;70031;45.570;14.228;2023-08-07T02:32:35;1.73;;;0.93;;
75814;SDS011;70031;45.570;14.228;2023-08-07T02:34:35;0.90;;;0.70;;
75814;SDS011;70031;45.570;14.228;2023-08-07T02:36:36;2.97;;;1.30;;
75814;SDS011;70031;45.570;14.228;2023-08-07T02:38:36;1.42;;;0.80;;
75814;SDS011;70031;45.570;14.228;2023-08-07T02:40:37;2.17;;;0.70;;
75814;SDS011;70031;45.570;14.228;2023-08-07T02:42:37;1.77;;;1.00;;
75814;SDS011;70031;45.570;14.228;2023-08-07T02:44:38;1.55;;;1.00;;
75814;SDS011;70031;45.570;14.228;2023-08-07T02:46:38;1.08;;;0.70;;
75814;SDS011;70031;45.570;14.228;2023-08-07T02:48:38;1.05;;;0.70;;
75814;SDS011;70031;45.570;14.228;2023-08-07T02:50:40;6.40;;;1.00;;
75814;SDS011;70031;45.570;14.228;2023-08-07T02:52:40;1.40;;;0.80;;
75814;SDS011;70031;45.570;14.228;2023-08-07T02:54:40;2.65;;;0.98;;
75814;SDS011;70031;45.570;14.228;2023-08-07T02:56:41;0.68;;;0.65;;
75814;SDS011;70031;45.570;14.228;2023-08-07T02:58:41;0.80;;;0.80;;
75814;SDS011;70031;45.570;14.228;2023-08-07T03:00:41;1.05;;;0.80;;
75814;SDS011;70031;45.570;14.228;2023-08-07T03:02:43;0.93;;;0.50;;
75814;SDS011;70031;45.570;14.228;2023-08-07T03:04:43;4.43;;;0.90;;
75814;SDS011;70031;45.570;14.228;2023-08-07T03:06:44;1.45;;;0.70;;
75814;SDS011;70031;45.570;14.228;2023-08-07T03:08:44;0.77;;;0.63;;
75814;SDS011;70031;45.570;14.228;2023-08-07T03:10:54;2.08;;;1.10;;
75814;SDS011;70031;45.570;14.228;2023-08-07T03:12:55;0.82;;;0.63;;
75814;SDS011;70031;45.570;14.228;2023-08-07T03:14:56;1.67;;;0.80;;
75814;SDS011;70031;45.570;14.228;2023-08-07T03:16:56;1.88;;;0.90;;
75814;SDS011;70031;45.570;14.228;2023-08-07T03:18:56;1.17;;;0.65;;
75814;SDS011;70031;45.570;14.228;2023-08-07T03:20:57;0.95;;;0.70;;
75814;SDS011;70031;45.570;14.228;2023-08-07T03:22:58;1.40;;;0.70;;
75814;SDS011;70031;45.570;14.228;2023-08-07T03:24:58;1.05;;;0.82;;
75814;SDS011;70031;45.570;14.228;2023-08-07T03:26:58;8.80;;;4.90;;
75814;SDS011;70031;45.570;14.228;2023-08-07T03:28:59;3.30;;;1.45;;
75814;SDS011;70031;45.570;14.228;2023-08-07T03:30:59;5.47;;;1.80;;
75814;SDS011;70031;45.570;14.228;2023-08-07T03:32:59;4.93;;;2.28;;
75814;SDS011;70031;45.570;14.228;2023-08-07T03:35:00;2.63;;;1.25;;
75814;SDS011;70031;45.570;14.228;2023-08-07T03:37:00;5.07;;;1.20;;
75814;SDS011;70031;45.570;14.228;2023-08-07T03:39:00;1.58;;;1.08;;
75814;SDS011;70031;45.570;14.228;2023-08-07T03:41:01;11.80;;;2.50;;
75814;SDS011;70031;45.570;14.228;2023-08-07T03:43:01;2.97;;;1.33;;
75814;SDS011;70031;45.570;14.228;2023-08-07T03:45:01;1.85;;;0.90;;
75814;SDS011;70031;45.570;14.228;2023-08-07T03:47:02;1.75;;;1.00;;
75814;SDS011;70031;45.570;14.228;2023-08-07T03:49:02;5.35;;;2.85;;
75814;SDS011;70031;45.570;14.228;2023-08-07T03:51:03;4.25;;;2.50;;
75814;SDS011;70031;45.570;14.228;2023-08-07T03:53:10;3.65;;;2.10;;
75814;SDS011;70031;45.570;14.228;2023-08-07T03:55:11;5.85;;;3.70;;
75814;SDS011;70031;45.570;14.228;2023-08-07T03:57:11;3.42;;;2.10;;
75814;SDS011;70031;45.570;14.228;2023-08-07T03:59:11;1.25;;;0.77;;
75814;SDS011;70031;45.570;14.228;2023-08-07T04:01:11;5.72;;;0.77;;
75814;SDS011;70031;45.570;14.228;2023-08-07T04:03:12;0.98;;;0.60;;
75814;SDS011;70031;45.570;14.228;2023-08-07T04:05:12;0.95;;;0.60;;
75814;SDS011;70031;45.570;14.228;2023-08-07T04:07:12;0.95;;;0.52;;
75814;SDS011;70031;45.570;14.228;2023-08-07T04:09:13;2.13;;;0.70;;
75814;SDS011;70031;45.570;14.228;2023-08-07T04:11:13;1.17;;;0.65;;
75814;SDS011;70031;45.570;14.228;2023-08-07T04:13:13;2.63;;;0.55;;
75814;SDS011;70031;45.570;14.228;2023-08-07T04:15:14;8.40;;;0.82;;
75814;SDS011;70031;45.570;14.228;2023-08-07T04:17:14;0.70;;;0.60;;
75814;SDS011;70031;45.570;14.228;2023-08-07T04:19:15;6.55;;;1.70;;
75814;SDS011;70031;45.570;14.228;2023-08-07T04:21:15;3.33;;;0.60;;
75814;SDS011;70031;45.570;14.228;2023-08-07T04:23:16;2.67;;;0.75;;
75814;SDS011;70031;45.570;14.228;2023-08-07T04:25:16;6.50;;;1.73;;
75814;SDS011;70031;45.570;14.228;2023-08-07T04:27:16;2.33;;;1.63;;
75814;SDS011;70031;45.570;14.228;2023-08-07T04:29:17;1.73;;;1.20;;
75814;SDS011;70031;45.570;14.228;2023-08-07T04:31:17;2.28;;;1.35;;
75814;SDS011;70031;45.570;14.228;2023-08-07T04:33:18;2.30;;;1.80;;
75814;SDS011;70031;45.570;14.228;2023-08-07T04:35:19;1.42;;;1.00;;
75814;SDS011;70031;45.570;14.228;2023-08-07T04:37:19;1.13;;;0.82;;
75814;SDS011;70031;45.570;14.228;2023-08-07T04:39:20;1.35;;;0.80;;
75814;SDS011;70031;45.570;14.228;2023-08-07T04:41:21;1.63;;;1.00;;
75814;SDS011;70031;45.570;14.228;2023-08-07T04:43:21;1.98;;;0.93;;
75814;SDS011;70031;45.570;14.228;2023-08-07T04:45:22;7.78;;;1.05;;
75814;SDS011;70031;45.570;14.228;2023-08-07T04:47:22;1.33;;;0.63;;
75814;SDS011;70031;45.570;14.228;2023-08-07T04:49:22;5.85;;;0.60;;
75814;SDS011;70031;45.570;14.228;2023-08-07T04:51:23;1.80;;;0.70;;
75814;SDS011;70031;45.570;14.228;2023-08-07T04:53:23;6.47;;;0.60;;
75814;SDS011;70031;45.570;14.228;2023-08-07T04:55:23;0.22;;;0.22;;
75814;SDS011;70031;45.570;14.228;2023-08-07T04:57:26;12.20;;;0.80;;
75814;SDS011;70031;45.570;14.228;2023-08-07T04:59:26;11.25;;;0.65;;
75814;SDS011;70031;45.570;14.228;2023-08-07T05:01:26;17.30;;;0.85;;
75814;SDS011;70031;45.570;14.228;2023-08-07T05:03:27;7.55;;;0.52;;
75814;SDS011;70031;45.570;14.228;2023-08-07T05:05:27;8.25;;;0.90;;
75814;SDS011;70031;45.570;14.228;2023-08-07T05:07:27;9.27;;;0.70;;
75814;SDS011;70031;45.570;14.228;2023-08-07T05:09:28;2.33;;;0.40;;
75814;SDS011;70031;45.570;14.228;2023-08-07T05:11:28;20.13;;;0.80;;
75814;SDS011;70031;45.570;14.228;2023-08-07T05:13:28;5.60;;;0.68;;
75814;SDS011;70031;45.570;14.228;2023-08-07T05:15:29;21.08;;;0.90;;
75814;SDS011;70031;45.570;14.228;2023-08-07T05:17:31;8.05;;;0.80;;
75814;SDS011;70031;45.570;14.228;2023-08-07T05:19:32;30.55;;;1.00;;
75814;SDS011;70031;45.570;14.228;2023-08-07T05:21:32;21.27;;;1.13;;
75814;SDS011;70031;45.570;14.228;2023-08-07T05:23:32;4.53;;;0.65;;
75814;SDS011;70031;45.570;14.228;2023-08-07T05:25:32;6.10;;;0.70;;
75814;SDS011;70031;45.570;14.228;2023-08-07T05:27:33;11.00;;;1.15;;
75814;SDS011;70031;45.570;14.228;2023-08-07T05:29:35;9.43;;;1.30;;
75814;SDS011;70031;45.570;14.228;2023-08-07T05:31:43;11.65;;;1.02;;
75814;SDS011;70031;45.570;14.228;2023-08-07T05:33:43;11.65;;;1.10;;
75814;SDS011;70031;45.570;14.228;2023-08-07T05:35:43;12.98;;;1.25;;
75814;SDS011;70031;45.570;14.228;2023-08-07T05:37:44;6.90;;;1.15;;
75814;SDS011;70031;45.570;14.228;2023-08-07T05:39:44;6.45;;;0.90;;
75814;SDS011;70031;45.570;14.228;2023-08-07T05:41:44;4.72;;;1.10;;
75814;SDS011;70031;45.570;14.228;2023-08-07T05:43:45;2.83;;;1.00;;
75814;SDS011;70031;45.570;14.228;2023-08-07T05:45:45;7.05;;;1.20;;
75814;SDS011;70031;45.570;14.228;2023-08-07T05:47:46;5.03;;;1.02;;
75814;SDS011;70031;45.570;14.228;2023-08-07T05:49:46;7.28;;;1.05;;
75814;SDS011;70031;45.570;14.228;2023-08-07T05:51:46;4.53;;;0.85;;
75814;SDS011;70031;45.570;14.228;2023-08-07T05:53:47;3.53;;;1.05;;
75814;SDS011;70031;45.570;14.228;2023-08-07T05:55:47;10.48;;;0.98;;
75814;SDS011;70031;45.570;14.228;2023-08-07T05:57:48;3.78;;;1.30;;
75814;SDS011;70031;45.570;14.228;2023-08-07T05:59:50;10.55;;;2.00;;
75814;SDS011;70031;45.570;14.228;2023-08-07T06:01:50;7.10;;;1.50;;
75814;SDS011;70031;45.570;14.228;2023-08-07T06:03:51;9.32;;;1.77;;
75814;SDS011;70031;45.570;14.228;2023-08-07T06:05:51;10.82;;;1.10;;
75814;SDS011;70031;45.570;14.228;2023-08-07T06:07:51;2.53;;;1.42;;
75814;SDS011;70031;45.570;14.228;2023-08-07T06:09:52;2.78;;;1.50;;
75814;SDS011;70031;45.570;14.228;2023-08-07T06:11:52;2.28;;;1.45;;
75814;SDS011;70031;45.570;14.228;2023-08-07T06:13:53;11.40;;;1.63;;
75814;SDS011;70031;45.570;14.228;2023-08-07T06:15:53;3.40;;;1.80;;
75814;SDS011;70031;45.570;14.228;2023-08-07T06:17:54;3.17;;;1.70;;
75814;SDS011;70031;45.570;14.228;2023-08-07T06:19:54;3.05;;;1.73;;
75814;SDS011;70031;45.570;14.228;2023-08-07T06:21:55;5.65;;;1.58;;
75814;SDS011;70031;45.570;14.228;2023-08-07T06:23:56;6.68;;;1.33;;
75814;SDS011;70031;45.570;14.228;2023-08-07T06:25:57;1.42;;;1.00;;
75814;SDS011;70031;45.570;14.228;2023-08-07T06:27:57;2.22;;;1.27;;
75814;SDS011;70031;45.570;14.228;2023-08-07T06:29:57;3.53;;;1.60;;
75814;SDS011;70031;45.570;14.228;2023-08-07T06:31:58;3.88;;;1.73;;
75814;SDS011;70031;45.570;14.228;2023-08-07T06:33:58;2.25;;;1.15;;
75814;SDS011;70031;45.570;14.228;2023-08-07T06:36:00;2.42;;;1.23;;
75814;SDS011;70031;45.570;14.228;2023-08-07T06:38:01;2.17;;;1.15;;
75814;SDS011;70031;45.570;14.228;2023-08-07T06:40:01;2.60;;;1.40;;
75814;SDS011;70031;45.570;14.228;2023-08-07T06:42:02;2.17;;;1.10;;
75814;SDS011;70031;45.570;14.228;2023-08-07T06:44:03;1.58;;;1.13;;
75814;SDS011;70031;45.570;14.228;2023-08-07T06:46:04;2.17;;;1.15;;
75814;SDS011;70031;45.570;14.228;2023-08-07T06:48:04;2.80;;;1.20;;
75814;SDS011;70031;45.570;14.228;2023-08-07T06:50:04;1.75;;;1.02;;
75814;SDS011;70031;45.570;14.228;2023-08-07T06:52:05;2.30;;;1.10;;
75814;SDS011;70031;45.570;14.228;2023-08-07T06:54:06;1.98;;;1.10;;
75814;SDS011;70031;45.570;14.228;2023-08-07T06:56:06;1.63;;;0.80;;
75814;SDS011;70031;45.570;14.228;2023-08-07T06:58:06;1.95;;;0.90;;
75814;SDS011;70031;45.570;14.228;2023-08-07T07:00:07;0.82;;;0.60;;
75814;SDS011;70031;45.570;14.228;2023-08-07T07:02:10;2.33;;;0.98;;
75814;SDS011;70031;45.570;14.228;2023-08-07T07:04:11;0.68;;;0.60;;
75814;SDS011;70031;45.570;14.228;2023-08-07T07:06:11;1.05;;;0.80;;
75814;SDS011;70031;45.570;14.228;2023-08-07T07:08:12;2.20;;;0.68;;
75814;SDS011;70031;45.570;14.228;2023-08-07T07:10:13;3.72;;;0.70;;
75814;SDS011;70031;45.570;14.228;2023-08-07T07:12:13;2.38;;;0.57;;
75814;SDS011;70031;45.570;14.228;2023-08-07T07:14:13;0.88;;;0.40;;
75814;SDS011;70031;45.570;14.228;2023-08-07T07:16:14;0.65;;;0.60;;
75814;SDS011;70031;45.570;14.228;2023-08-07T07:18:14;0.75;;;0.60;;
75814;SDS011;70031;45.570;14.228;2023-08-07T07:20:17;2.67;;;0.60;;
75814;SDS011;70031;45.570;14.228;2023-08-07T07:22:18;0.45;;;0.40;;
75814;SDS011;70031;45.570;14.228;2023-08-07T07:24:18;1.30;;;0.60;;
75814;SDS011;70031;45.570;14.228;2023-08-07T07:26:19;1.42;;;0.52;;
75814;SDS011;70031;45.570;14.228;2023-08-07T07:28:20;0.35;;;0.35;;
75814;SDS011;70031;45.570;14.228;2023-08-07T07:30:20;0.70;;;0.32;;
75814;SDS011;70031;45.570;14.228;2023-08-07T07:32:22;0.55;;;0.40;;
75814;SDS011;70031;45.570;14.228;2023-08-07T07:34:22;0.30;;;0.30;;
75814;SDS011;70031;45.570;14.228;2023-08-07T07:36:22;0.73;;;0.47;;
75814;SDS011;70031;45.570;14.228;2023-08-07T07:38:23;0.45;;;0.45;;
75814;SDS011;70031;45.570;14.228;2023-08-07T07:40:23;0.40;;;0.40;;
75814;SDS011;70031;45.570;14.228;2023-08-07T07:42:24;0.52;;;0.30;;
75814;SDS011;70031;45.570;14.228;2023-08-07T07:44:24;0.63;;;0.50;;
75814;SDS011;70031;45.570;14.228;2023-08-07T07:46:25;0.93;;;0.70;;
75814;SDS011;70031;45.570;14.228;2023-08-07T07:48:25;0.50;;;0.45;;
75814;SDS011;70031;45.570;14.228;2023-08-07T07:50:26;1.15;;;0.50;;
75814;SDS011;70031;45.570;14.228;2023-08-07T07:52:26;0.40;;;0.40;;
75814;SDS011;70031;45.570;14.228;2023-08-07T07:54:28;1.63;;;0.57;;
75814;SDS011;70031;45.570;14.228;2023-08-07T07:56:29;2.13;;;0.50;;
75814;SDS011;70031;45.570;14.228;2023-08-07T07:58:29;0.50;;;0.43;;
75814;SDS011;70031;45.570;14.228;2023-08-07T08:00:30;0.60;;;0.40;;
75814;SDS011;70031;45.570;14.228;2023-08-07T08:02:33;1.10;;;0.30;;
75814;SDS011;70031;45.570;14.228;2023-08-07T08:04:33;0.47;;;0.30;;
75814;SDS011;70031;45.570;14.228;2023-08-07T08:06:35;0.40;;;0.40;;
75814;SDS011;70031;45.570;14.228;2023-08-07T08:08:36;1.30;;;0.50;;
75814;SDS011;70031;45.570;14.228;2023-08-07T08:10:36;0.32;;;0.30;;
75814;SDS011;70031;45.570;14.228;2023-08-07T08:12:37;1.00;;;0.70;;
75814;SDS011;70031;45.570;14.228;2023-08-07T08:14:37;4.80;;;0.40;;
75814;SDS011;70031;45.570;14.228;2023-08-07T08:16:37;7.68;;;0.60;;
75814;SDS011;70031;45.570;14.228;2023-08-07T08:18:38;5.55;;;0.93;;
75814;SDS011;70031;45.570;14.228;2023-08-07T08:20:38;3.55;;;1.02;;
75814;SDS011;70031;45.570;14.228;2023-08-07T08:22:39;5.90;;;0.93;;
75814;SDS011;70031;45.570;14.228;2023-08-07T08:24:39;6.43;;;1.08;;
75814;SDS011;70031;45.570;14.228;2023-08-07T08:26:39;3.40;;;0.77;;
75814;SDS011;70031;45.570;14.228;2023-08-07T08:28:40;4.72;;;1.13;;
75814;SDS011;70031;45.570;14.228;2023-08-07T08:30:41;6.97;;;1.42;;
75814;SDS011;70031;45.570;14.228;2023-08-07T08:32:42;3.53;;;1.00;;
75814;SDS011;70031;45.570;14.228;2023-08-07T08:34:43;1.63;;;0.87;;
75814;SDS011;70031;45.570;14.228;2023-08-07T08:36:46;8.32;;;0.95;;
75814;SDS011;70031;45.570;14.228;2023-08-07T08:38:47;4.72;;;1.15;;
75814;SDS011;70031;45.570;14.228;2023-08-07T08:40:48;2.85;;;0.90;;
75814;SDS011;70031;45.570;14.228;2023-08-07T08:42:52;4.70;;;1.52;;
75814;SDS011;70031;45.570;14.228;2023-08-07T08:44:56;5.43;;;0.93;;
75814;SDS011;70031;45.570;14.228;2023-08-07T08:46:56;7.35;;;0.77;;
75814;SDS011;70031;45.570;14.228;2023-08-07T08:49:00;4.45;;;1.00;;
75814;SDS011;70031;45.570;14.228;2023-08-07T08:51:04;4.45;;;1.00;;
75814;SDS011;70031;45.570;14.228;2023-08-07T08:53:05;5.82;;;0.93;;
75814;SDS011;70031;45.570;14.228;2023-08-07T08:55:08;1.60;;;0.73;;
75814;SDS011;70031;45.570;14.228;2023-08-07T08:57:09;1.20;;;0.70;;
75814;SDS011;70031;45.570;14.228;2023-08-07T08:59:11;5.38;;;0.85;;
75814;SDS011;70031;45.570;14.228;2023-08-07T09:01:11;2.67;;;0.93;;
75814;SDS011;70031;45.570;14.228;2023-08-07T09:03:12;6.82;;;0.80;;
75814;SDS011;70031;45.570;14.228;2023-08-07T09:05:14;5.53;;;0.93;;
75814;SDS011;70031;45.570;14.228;2023-08-07T09:07:15;3.33;;;0.70;;
75814;SDS011;70031;45.570;14.228;2023-08-07T09:09:17;5.97;;;0.90;;
75814;SDS011;70031;45.570;14.228;2023-08-07T09:11:21;6.20;;;0.70;;
75814;SDS011;70031;45.570;14.228;2023-08-07T09:13:23;7.05;;;0.90;;
75814;SDS011;70031;45.570;14.228;2023-08-07T09:17:27;4.90;;;0.80;;
75814;SDS011;70031;45.570;14.228;2023-08-07T09:19:29;1.98;;;0.75;;
75814;SDS011;70031;45.570;14.228;2023-08-07T09:21:29;4.18;;;0.90;;
75814;SDS011;70031;45.570;14.228;2023-08-07T09:23:30;4.63;;;0.77;;
75814;SDS011;70031;45.570;14.228;2023-08-07T09:25:31;0.55;;;0.43;;
75814;SDS011;70031;45.570;14.228;2023-08-07T09:27:33;3.30;;;0.60;;
75814;SDS011;70031;45.570;14.228;2023-08-07T09:29:39;5.10;;;0.70;;
75814;SDS011;70031;45.570;14.228;2023-08-07T09:31:42;1.25;;;0.30;;
75814;SDS011;70031;45.570;14.228;2023-08-07T09:33:46;1.25;;;0.50;;
75814;SDS011;70031;45.570;14.228;2023-08-07T09:35:47;1.67;;;0.32;;
75814;SDS011;70031;45.570;14.228;2023-08-07T09:37:48;1.55;;;0.43;;
75814;SDS011;70031;45.570;14.228;2023-08-07T09:39:49;0.40;;;0.28;;
75814;SDS011;70031;45.570;14.228;2023-08-07T09:41:50;0.40;;;0.30;;
75814;SDS011;70031;45.570;14.228;2023-08-07T09:43:52;0.70;;;0.40;;
75814;SDS011;70031;45.570;14.228;2023-08-07T09:45:52;1.10;;;0.30;;
75814;SDS011;70031;45.570;14.228;2023-08-07T09:48:11;0.65;;;0.30;;
75814;SDS011;70031;45.570;14.228;2023-08-07T09:50:15;0.65;;;0.32;;
75814;SDS011;70031;45.570;14.228;2023-08-07T09:52:17;0.77;;;0.40;;
75814;SDS011;70031;45.570;14.228;2023-08-07T09:54:18;1.83;;;0.35;;
75814;SDS011;70031;45.570;14.228;2023-08-07T09:56:18;1.30;;;0.30;;
75814;SDS011;70031;45.570;14.228;2023-08-07T09:58:19;0.30;;;0.30;;
75814;SDS011;70031;45.570;14.228;2023-08-07T10:00:20;0.38;;;0.38;;
75814;SDS011;70031;45.570;14.228;2023-08-07T10:02:21;0.47;;;0.28;;
75814;SDS011;70031;45.570;14.228;2023-08-07T10:04:22;0.30;;;0.30;;
75814;SDS011;70031;45.570;14.228;2023-08-07T10:06:22;0.43;;;0.25;;
75814;SDS011;70031;45.570;14.228;2023-08-07T10:08:23;0.40;;;0.30;;
75814;SDS011;70031;45.570;14.228;2023-08-07T10:10:24;0.75;;;0.20;;
75814;SDS011;70031;45.570;14.228;2023-08-07T10:12:27;0.10;;;0.10;;
75814;SDS011;70031;45.570;14.228;2023-08-07T10:14:29;0.35;;;0.25;;
75814;SDS011;70031;45.570;14.228;2023-08-07T10:16:30;0.17;;;0.17;;
75814;SDS011;70031;45.570;14.228;2023-08-07T10:18:31;0.75;;;0.40;;
75814;SDS011;70031;45.570;14.228;2023-08-07T10:20:32;0.17;;;0.17;;
75814;SDS011;70031;45.570;14.228;2023-08-07T10:22:35;0.30;;;0.20;;
75814;SDS011;70031;45.570;14.228;2023-08-07T10:24:39;0.30;;;0.30;;
75814;SDS011;70031;45.570;14.228;2023-08-07T10:26:43;1.35;;;0.30;;
75814;SDS011;70031;45.570;14.228;2023-08-07T10:28:45;0.30;;;0.30;;
75814;SDS011;70031;45.570;14.228;2023-08-07T10:30:46;0.28;;;0.28;;
75814;SDS011;70031;45.570;14.228;2023-08-07T10:32:48;0.20;;;0.20;;
75814;SDS011;70031;45.570;14.228;2023-08-07T10:34:50;0.20;;;0.20;;
75814;SDS011;70031;45.570;14.228;2023-08-07T10:36:51;0.30;;;0.30;;
75814;SDS011;70031;45.570;14.228;2023-08-07T10:38:56;0.43;;;0.30;;
75814;SDS011;70031;45.570;14.228;2023-08-07T10:41:09;0.20;;;0.20;;
75814;SDS011;70031;45.570;14.228;2023-08-07T10:43:13;0.25;;;0.25;;
75814;SDS011;70031;45.570;14.228;2023-08-07T10:45:18;0.20;;;0.20;;
75814;SDS011;70031;45.570;14.228;2023-08-07T10:47:33;0.30;;;0.30;;
75814;SDS011;70031;45.570;14.228;2023-08-07T10:49:38;0.20;;;0.20;;
75814;SDS011;70031;45.570;14.228;2023-08-07T10:51:40;0.10;;;0.10;;
75814;SDS011;70031;45.570;14.228;2023-08-07T10:53:44;0.20;;;0.20;;
75814;SDS011;70031;45.570;14.228;2023-08-07T10:55:47;0.32;;;0.30;;
75814;SDS011;70031;45.570;14.228;2023-08-07T10:57:48;0.20;;;0.20;;
75814;SDS011;70031;45.570;14.228;2023-08-07T10:59:49;0.40;;;0.30;;
75814;SDS011;70031;45.570;14.228;2023-08-07T11:02:04;0.20;;;0.20;;
75814;SDS011;70031;45.570;14.228;2023-08-07T11:04:14;0.10;;;0.10;;
75814;SDS011;70031;45.570;14.228;2023-08-07T11:06:15;0.20;;;0.20;;
75814;SDS011;70031;45.570;14.228;2023-08-07T11:08:21;0.22;;;0.22;;
75814;SDS011;70031;45.570;14.228;2023-08-07T11:10:22;0.10;;;0.10;;
75814;SDS011;70031;45.570;14.228;2023-08-07T11:12:25;0.20;;;0.20;;
75814;SDS011;70031;45.570;14.228;2023-08-07T11:14:26;0.30;;;0.30;;
75814;SDS011;70031;45.570;14.228;2023-08-07T11:16:27;0.55;;;0.40;;
75814;SDS011;70031;45.570;14.228;2023-08-07T11:18:28;0.75;;;0.50;;
75814;SDS011;70031;45.570;14.228;2023-08-07T11:20:28;0.30;;;0.30;;
75814;SDS011;70031;45.570;14.228;2023-08-07T11:22:29;0.85;;;0.20;;
75814;SDS011;70031;45.570;14.228;2023-08-07T11:24:30;0.20;;;0.20;;
75814;SDS011;70031;45.570;14.228;2023-08-07T11:26:30;0.40;;;0.30;;
75814;SDS011;70031;45.570;14.228;2023-08-07T11:28:31;0.20;;;0.20;;
75814;SDS011;70031;45.570;14.228;2023-08-07T11:30:31;0.60;;;0.30;;
75814;SDS011;70031;45.570;14.228;2023-08-07T11:32:32;0.47;;;0.30;;
75814;SDS011;70031;45.570;14.228;2023-08-07T11:34:32;0.20;;;0.20;;
75814;SDS011;70031;45.570;14.228;2023-08-07T11:36:33;0.20;;;0.20;;
75814;SDS011;70031;45.570;14.228;2023-08-07T11:38:42;1.55;;;0.30;;
75814;SDS011;70031;45.570;14.228;2023-08-07T11:40:43;0.63;;;0.30;;
75814;SDS011;70031;45.570;14.228;2023-08-07T11:42:43;0.20;;;0.20;;
75814;SDS011;70031;45.570;14.228;2023-08-07T11:44:44;0.50;;;0.40;;
75814;SDS011;70031;45.570;14.228;2023-08-07T11:46:45;0.85;;;0.50;;
75814;SDS011;70031;45.570;14.228;2023-08-07T11:48:45;0.28;;;0.28;;
75814;SDS011;70031;45.570;14.228;2023-08-07T11:50:45;0.50;;;0.30;;
75814;SDS011;70031;45.570;14.228;2023-08-07T11:52:46;1.45;;;0.30;;
75814;SDS011;70031;45.570;14.228;2023-08-07T11:54:47;0.30;;;0.30;;
75814;SDS011;70031;45.570;14.228;2023-08-07T11:56:48;0.30;;;0.30;;
75814;SDS011;70031;45.570;14.228;2023-08-07T11:58:50;0.20;;;0.20;;
75814;SDS011;70031;45.570;14.228;2023-08-07T12:00:53;0.30;;;0.30;;
75814;SDS011;70031;45.570;14.228;2023-08-07T12:02:54;0.43;;;0.40;;
75814;SDS011;70031;45.570;14.228;2023-08-07T12:04:58;0.20;;;0.20;;
75814;SDS011;70031;45.570;14.228;2023-08-07T12:06:59;0.25;;;0.25;;
75814;SDS011;70031;45.570;14.228;2023-08-07T12:08:59;0.20;;;0.20;;